sensor_id;sensor_type;location;lat;lon;timestamp;temperature;humidity
14008;DHT22;61651;45.508;12.232;2023-03-03T00:02:59;10.30;99.90
14008;DHT22;61651;45.508;12.232;2023-03-03T00:06:02;10.20;99.90
14008;DHT22;61651;45.508;12.232;2023-03-03T00:09:06;10.10;99.90
14008;DHT22;61651;45.508;12.232;2023-03-03T00:12:20;10.10;99.90
14008;DHT22;61651;45.508;12.232;2023-03-03T00:15:24;10.00;99.90
14008;DHT22;61651;45.508;12.232;2023-03-03T00:18:30;10.00;99.90
14008;DHT22;61651;45.508;12.232;2023-03-03T00:21:40;10.00;99.90
14008;DHT22;61651;45.508;12.232;2023-03-03T00:24:43;10.00;99.90
14008;DHT22;61651;45.508;12.232;2023-03-03T00:27:47;10.10;99.90
14008;DHT22;61651;45.508;12.232;2023-03-03T00:30:49;10.00;99.90
14008;DHT22;61651;45.508;12.232;2023-03-03T00:33:53;10.00;99.90
14008;DHT22;61651;45.508;12.232;2023-03-03T00:36:57;9.90;99.90
14008;DHT22;61651;45.508;12.232;2023-03-03T00:40:19;9.80;99.90
14008;DHT22;61651;45.508;12.232;2023-03-03T00:43:23;9.80;99.90
14008;DHT22;61651;45.508;12.232;2023-03-03T00:46:25;9.80;99.90
14008;DHT22;61651;45.508;12.232;2023-03-03T00:49:27;9.80;99.90
14008;DHT22;61651;45.508;12.232;2023-03-03T00:52:29;9.80;99.90
14008;DHT22;61651;45.508;12.232;2023-03-03T00:55:33;9.70;99.90
14008;DHT22;61651;45.508;12.232;2023-03-03T00:58:35;9.60;99.90
14008;DHT22;61651;45.508;12.232;2023-03-03T01:01:37;9.60;99.90
14008;DHT22;61651;45.508;12.232;2023-03-03T01:04:40;9.60;99.90
14008;DHT22;61651;45.508;12.232;2023-03-03T01:07:43;9.60;99.90
14008;DHT22;61651;45.508;12.232;2023-03-03T01:10:48;9.70;99.90
14008;DHT22;61651;45.508;12.232;2023-03-03T01:13:51;9.60;99.90
14008;DHT22;61651;45.508;12.232;2023-03-03T01:16:54;9.60;99.90
14008;DHT22;61651;45.508;12.232;2023-03-03T01:19:55;9.60;99.90
14008;DHT22;61651;45.508;12.232;2023-03-03T01:22:57;9.60;99.90
14008;DHT22;61651;45.508;12.232;2023-03-03T01:26:01;9.60;99.90
14008;DHT22;61651;45.508;12.232;2023-03-03T01:29:03;9.50;99.90
14008;DHT22;61651;45.508;12.232;2023-03-03T01:32:05;9.50;99.90
14008;DHT22;61651;45.508;12.232;2023-03-03T01:35:08;9.40;99.90
14008;DHT22;61651;45.508;12.232;2023-03-03T01:38:10;9.30;99.90
14008;DHT22;61651;45.508;12.232;2023-03-03T01:41:13;9.30;99.90
14008;DHT22;61651;45.508;12.232;2023-03-03T01:44:15;9.30;99.90
14008;DHT22;61651;45.508;12.232;2023-03-03T01:47:19;9.40;99.90
14008;DHT22;61651;45.508;12.232;2023-03-03T01:50:37;9.30;99.90
14008;DHT22;61651;45.508;12.232;2023-03-03T01:53:43;9.30;99.90
14008;DHT22;61651;45.508;12.232;2023-03-03T01:56:49;9.20;99.90
14008;DHT22;61651;45.508;12.232;2023-03-03T01:59:51;9.30;99.90
14008;DHT22;61651;45.508;12.232;2023-03-03T02:02:54;9.30;99.90
14008;DHT22;61651;45.508;12.232;2023-03-03T02:06:01;9.30;99.90
14008;DHT22;61651;45.508;12.232;2023-03-03T02:09:09;9.10;99.90
14008;DHT22;61651;45.508;12.232;2023-03-03T02:12:16;9.10;99.90
14008;DHT22;61651;45.508;12.232;2023-03-03T02:15:22;9.20;99.90
14008;DHT22;61651;45.508;12.232;2023-03-03T02:18:24;9.10;99.90
14008;DHT22;61651;45.508;12.232;2023-03-03T02:21:26;9.20;99.90
14008;DHT22;61651;45.508;12.232;2023-03-03T02:24:32;9.10;99.90
14008;DHT22;61651;45.508;12.232;2023-03-03T02:27:37;9.10;99.90
14008;DHT22;61651;45.508;12.232;2023-03-03T02:30:39;9.10;99.90
14008;DHT22;61651;45.508;12.232;2023-03-03T02:33:42;9.00;99.90
14008;DHT22;61651;45.508;12.232;2023-03-03T02:36:44;9.10;99.90
14008;DHT22;61651;45.508;12.232;2023-03-03T02:39:46;9.00;99.90
14008;DHT22;61651;45.508;12.232;2023-03-03T02:42:52;9.00;99.90
14008;DHT22;61651;45.508;12.232;2023-03-03T02:45:56;9.00;99.90
14008;DHT22;61651;45.508;12.232;2023-03-03T02:48:58;9.00;99.90
14008;DHT22;61651;45.508;12.232;2023-03-03T02:52:01;9.00;99.90
14008;DHT22;61651;45.508;12.232;2023-03-03T02:55:04;9.00;99.90
14008;DHT22;61651;45.508;12.232;2023-03-03T02:58:07;9.00;99.90
14008;DHT22;61651;45.508;12.232;2023-03-03T03:01:09;9.00;99.90
14008;DHT22;61651;45.508;12.232;2023-03-03T03:04:13;8.90;99.90
14008;DHT22;61651;45.508;12.232;2023-03-03T03:07:15;8.70;99.90
14008;DHT22;61651;45.508;12.232;2023-03-03T03:10:17;8.70;99.90
14008;DHT22;61651;45.508;12.232;2023-03-03T03:13:21;8.80;99.90
14008;DHT22;61651;45.508;12.232;2023-03-03T03:16:23;8.80;99.90
14008;DHT22;61651;45.508;12.232;2023-03-03T03:19:25;8.70;99.90
14008;DHT22;61651;45.508;12.232;2023-03-03T03:22:27;8.80;99.90
14008;DHT22;61651;45.508;12.232;2023-03-03T03:25:29;8.80;99.90
14008;DHT22;61651;45.508;12.232;2023-03-03T03:28:33;8.60;99.90
14008;DHT22;61651;45.508;12.232;2023-03-03T03:31:35;8.60;99.90
14008;DHT22;61651;45.508;12.232;2023-03-03T03:34:37;8.70;99.90
14008;DHT22;61651;45.508;12.232;2023-03-03T03:37:39;8.60;99.90
14008;DHT22;61651;45.508;12.232;2023-03-03T03:40:41;8.50;99.90
14008;DHT22;61651;45.508;12.232;2023-03-03T03:43:45;8.40;99.90
14008;DHT22;61651;45.508;12.232;2023-03-03T03:46:47;8.50;99.90
14008;DHT22;61651;45.508;12.232;2023-03-03T03:49:49;8.50;99.90
14008;DHT22;61651;45.508;12.232;2023-03-03T03:52:51;8.50;99.90
14008;DHT22;61651;45.508;12.232;2023-03-03T03:55:53;8.40;99.90
14008;DHT22;61651;45.508;12.232;2023-03-03T03:58:56;8.40;99.90
14008;DHT22;61651;45.508;12.232;2023-03-03T04:01:58;8.40;99.90
14008;DHT22;61651;45.508;12.232;2023-03-03T04:05:00;8.40;99.90
14008;DHT22;61651;45.508;12.232;2023-03-03T04:08:02;8.40;99.90
14008;DHT22;61651;45.508;12.232;2023-03-03T04:11:04;8.40;99.90
14008;DHT22;61651;45.508;12.232;2023-03-03T04:14:07;8.40;99.90
14008;DHT22;61651;45.508;12.232;2023-03-03T04:17:12;8.40;99.90
14008;DHT22;61651;45.508;12.232;2023-03-03T04:20:15;8.40;99.90
14008;DHT22;61651;45.508;12.232;2023-03-03T04:23:17;8.40;99.90
14008;DHT22;61651;45.508;12.232;2023-03-03T04:26:19;8.30;99.90
14008;DHT22;61651;45.508;12.232;2023-03-03T04:29:23;8.30;99.90
14008;DHT22;61651;45.508;12.232;2023-03-03T04:32:25;8.30;99.90
14008;DHT22;61651;45.508;12.232;2023-03-03T04:35:27;8.30;99.90
14008;DHT22;61651;45.508;12.232;2023-03-03T04:38:29;8.30;99.90
14008;DHT22;61651;45.508;12.232;2023-03-03T04:41:31;8.30;99.90
14008;DHT22;61651;45.508;12.232;2023-03-03T04:44:34;8.30;99.90
14008;DHT22;61651;45.508;12.232;2023-03-03T04:47:36;8.20;99.90
14008;DHT22;61651;45.508;12.232;2023-03-03T04:50:38;8.10;99.90
14008;DHT22;61651;45.508;12.232;2023-03-03T04:53:40;8.10;99.90
14008;DHT22;61651;45.508;12.232;2023-03-03T04:56:42;8.20;99.90
14008;DHT22;61651;45.508;12.232;2023-03-03T04:59:45;8.20;99.90
14008;DHT22;61651;45.508;12.232;2023-03-03T05:02:47;8.30;99.90
14008;DHT22;61651;45.508;12.232;2023-03-03T05:05:49;8.30;99.90
14008;DHT22;61651;45.508;12.232;2023-03-03T05:08:51;8.30;99.90
14008;DHT22;61651;45.508;12.232;2023-03-03T05:11:54;8.20;99.90
14008;DHT22;61651;45.508;12.232;2023-03-03T05:14:57;8.20;99.90
14008;DHT22;61651;45.508;12.232;2023-03-03T05:17:59;8.20;99.90
14008;DHT22;61651;45.508;12.232;2023-03-03T05:21:01;8.20;99.90
14008;DHT22;61651;45.508;12.232;2023-03-03T05:24:03;8.20;99.90
14008;DHT22;61651;45.508;12.232;2023-03-03T05:27:05;8.20;99.90
14008;DHT22;61651;45.508;12.232;2023-03-03T05:30:10;8.10;99.90
14008;DHT22;61651;45.508;12.232;2023-03-03T05:33:14;8.10;99.90
14008;DHT22;61651;45.508;12.232;2023-03-03T05:36:16;8.10;99.90
14008;DHT22;61651;45.508;12.232;2023-03-03T05:39:18;8.20;99.90
14008;DHT22;61651;45.508;12.232;2023-03-03T05:42:20;8.20;99.90
14008;DHT22;61651;45.508;12.232;2023-03-03T05:45:23;8.10;99.90
14008;DHT22;61651;45.508;12.232;2023-03-03T05:48:25;8.10;99.90
14008;DHT22;61651;45.508;12.232;2023-03-03T05:51:27;8.10;99.90
14008;DHT22;61651;45.508;12.232;2023-03-03T05:54:29;8.10;99.90
14008;DHT22;61651;45.508;12.232;2023-03-03T05:57:31;8.10;99.90
14008;DHT22;61651;45.508;12.232;2023-03-03T06:00:36;7.70;99.90
14008;DHT22;61651;45.508;12.232;2023-03-03T06:03:39;7.80;99.90
14008;DHT22;61651;45.508;12.232;2023-03-03T06:06:41;7.90;99.90
14008;DHT22;61651;45.508;12.232;2023-03-03T06:09:42;7.90;99.90
14008;DHT22;61651;45.508;12.232;2023-03-03T06:12:44;7.90;99.90
14008;DHT22;61651;45.508;12.232;2023-03-03T06:15:48;8.00;99.90
14008;DHT22;61651;45.508;12.232;2023-03-03T06:18:51;7.90;99.90
14008;DHT22;61651;45.508;12.232;2023-03-03T06:21:52;7.90;99.90
14008;DHT22;61651;45.508;12.232;2023-03-03T06:24:55;7.60;99.90
14008;DHT22;61651;45.508;12.232;2023-03-03T06:27:56;7.40;99.90
14008;DHT22;61651;45.508;12.232;2023-03-03T06:31:00;7.40;99.90
14008;DHT22;61651;45.508;12.232;2023-03-03T06:34:02;7.30;99.90
14008;DHT22;61651;45.508;12.232;2023-03-03T06:37:04;7.30;99.90
14008;DHT22;61651;45.508;12.232;2023-03-03T06:40:07;7.30;99.90
14008;DHT22;61651;45.508;12.232;2023-03-03T06:43:09;7.30;99.90
14008;DHT22;61651;45.508;12.232;2023-03-03T06:46:13;7.30;99.90
14008;DHT22;61651;45.508;12.232;2023-03-03T06:49:15;7.50;99.90
14008;DHT22;61651;45.508;12.232;2023-03-03T06:52:21;7.80;99.90
14008;DHT22;61651;45.508;12.232;2023-03-03T06:55:23;7.90;99.90
14008;DHT22;61651;45.508;12.232;2023-03-03T06:58:25;8.10;99.90
14008;DHT22;61651;45.508;12.232;2023-03-03T07:01:35;8.10;99.90
14008;DHT22;61651;45.508;12.232;2023-03-03T07:04:38;8.20;99.90
14008;DHT22;61651;45.508;12.232;2023-03-03T07:07:40;8.20;99.90
14008;DHT22;61651;45.508;12.232;2023-03-03T07:10:43;8.30;99.90
14008;DHT22;61651;45.508;12.232;2023-03-03T07:13:47;8.50;99.90
14008;DHT22;61651;45.508;12.232;2023-03-03T07:16:55;8.60;99.90
14008;DHT22;61651;45.508;12.232;2023-03-03T07:20:00;8.60;99.90
14008;DHT22;61651;45.508;12.232;2023-03-03T07:23:11;8.60;99.90
14008;DHT22;61651;45.508;12.232;2023-03-03T07:26:18;8.60;99.90
14008;DHT22;61651;45.508;12.232;2023-03-03T07:29:24;8.70;99.90
14008;DHT22;61651;45.508;12.232;2023-03-03T07:32:36;8.90;99.90
14008;DHT22;61651;45.508;12.232;2023-03-03T07:35:41;9.00;99.90
14008;DHT22;61651;45.508;12.232;2023-03-03T07:38:47;9.00;99.90
14008;DHT22;61651;45.508;12.232;2023-03-03T07:41:57;9.00;99.90
14008;DHT22;61651;45.508;12.232;2023-03-03T07:45:01;9.00;99.90
14008;DHT22;61651;45.508;12.232;2023-03-03T07:48:15;9.20;99.90
14008;DHT22;61651;45.508;12.232;2023-03-03T07:51:21;9.40;99.90
14008;DHT22;61651;45.508;12.232;2023-03-03T07:54:30;9.50;99.90
14008;DHT22;61651;45.508;12.232;2023-03-03T07:57:36;9.60;99.90
14008;DHT22;61651;45.508;12.232;2023-03-03T08:04:36;9.80;99.90
14008;DHT22;61651;45.508;12.232;2023-03-03T08:07:39;9.90;99.90
14008;DHT22;61651;45.508;12.232;2023-03-03T08:10:45;10.00;99.90
14008;DHT22;61651;45.508;12.232;2023-03-03T08:13:47;10.20;99.90
14008;DHT22;61651;45.508;12.232;2023-03-03T08:16:49;10.40;99.90
14008;DHT22;61651;45.508;12.232;2023-03-03T08:19:54;10.50;99.90
14008;DHT22;61651;45.508;12.232;2023-03-03T08:22:56;10.70;99.90
14008;DHT22;61651;45.508;12.232;2023-03-03T08:25:58;10.80;99.90
14008;DHT22;61651;45.508;12.232;2023-03-03T08:29:00;10.70;99.90
14008;DHT22;61651;45.508;12.232;2023-03-03T08:32:02;10.70;99.90
14008;DHT22;61651;45.508;12.232;2023-03-03T08:35:07;10.90;99.90
14008;DHT22;61651;45.508;12.232;2023-03-03T08:38:10;11.00;99.90
14008;DHT22;61651;45.508;12.232;2023-03-03T08:41:12;11.20;99.90
14008;DHT22;61651;45.508;12.232;2023-03-03T08:44:14;11.40;99.90
14008;DHT22;61651;45.508;12.232;2023-03-03T08:47:16;11.50;99.90
14008;DHT22;61651;45.508;12.232;2023-03-03T08:50:20;11.70;99.90
14008;DHT22;61651;45.508;12.232;2023-03-03T08:53:22;11.70;99.90
14008;DHT22;61651;45.508;12.232;2023-03-03T08:56:24;11.90;99.90
14008;DHT22;61651;45.508;12.232;2023-03-03T08:59:26;11.90;99.90
14008;DHT22;61651;45.508;12.232;2023-03-03T09:02:28;12.00;99.90
14008;DHT22;61651;45.508;12.232;2023-03-03T09:05:32;12.10;99.90
14008;DHT22;61651;45.508;12.232;2023-03-03T09:08:35;12.10;99.90
14008;DHT22;61651;45.508;12.232;2023-03-03T09:11:37;12.20;99.90
14008;DHT22;61651;45.508;12.232;2023-03-03T09:14:39;12.40;99.90
14008;DHT22;61651;45.508;12.232;2023-03-03T09:17:41;12.50;99.90
14008;DHT22;61651;45.508;12.232;2023-03-03T09:20:46;12.50;99.90
14008;DHT22;61651;45.508;12.232;2023-03-03T09:23:54;12.60;99.90
14008;DHT22;61651;45.508;12.232;2023-03-03T09:26:57;12.70;99.90
14008;DHT22;61651;45.508;12.232;2023-03-03T09:30:01;12.90;99.90
14008;DHT22;61651;45.508;12.232;2023-03-03T09:33:21;13.00;99.90
14008;DHT22;61651;45.508;12.232;2023-03-03T09:36:27;13.20;99.90
14008;DHT22;61651;45.508;12.232;2023-03-03T09:39:30;13.30;99.90
14008;DHT22;61651;45.508;12.232;2023-03-03T09:42:45;13.40;99.90
14008;DHT22;61651;45.508;12.232;2023-03-03T09:45:57;13.60;99.90
14008;DHT22;61651;45.508;12.232;2023-03-03T09:49:10;13.70;99.90
14008;DHT22;61651;45.508;12.232;2023-03-03T09:52:28;13.80;99.90
14008;DHT22;61651;45.508;12.232;2023-03-03T09:55:42;13.80;99.90
14008;DHT22;61651;45.508;12.232;2023-03-03T09:58:59;13.90;99.90
14008;DHT22;61651;45.508;12.232;2023-03-03T10:02:20;13.90;99.90
14008;DHT22;61651;45.508;12.232;2023-03-03T10:05:33;14.10;99.90
14008;DHT22;61651;45.508;12.232;2023-03-03T10:08:56;14.20;99.90
14008;DHT22;61651;45.508;12.232;2023-03-03T10:12:04;14.30;99.90
14008;DHT22;61651;45.508;12.232;2023-03-03T10:15:18;14.40;99.90
14008;DHT22;61651;45.508;12.232;2023-03-03T10:18:28;14.60;99.90
14008;DHT22;61651;45.508;12.232;2023-03-03T10:21:35;14.70;99.90
14008;DHT22;61651;45.508;12.232;2023-03-03T10:24:50;14.80;99.90
14008;DHT22;61651;45.508;12.232;2023-03-03T10:28:19;15.00;99.90
14008;DHT22;61651;45.508;12.232;2023-03-03T10:31:36;15.10;99.90
14008;DHT22;61651;45.508;12.232;2023-03-03T10:34:58;15.30;99.90
14008;DHT22;61651;45.508;12.232;2023-03-03T10:38:21;15.30;99.90
14008;DHT22;61651;45.508;12.232;2023-03-03T10:41:50;15.40;99.90
14008;DHT22;61651;45.508;12.232;2023-03-03T10:45:11;15.40;99.90
14008;DHT22;61651;45.508;12.232;2023-03-03T10:48:33;15.50;99.90
14008;DHT22;61651;45.508;12.232;2023-03-03T10:51:51;15.50;99.90
14008;DHT22;61651;45.508;12.232;2023-03-03T10:55:25;15.70;99.90
14008;DHT22;61651;45.508;12.232;2023-03-03T10:58:45;15.80;99.90
14008;DHT22;61651;45.508;12.232;2023-03-03T11:01:54;15.90;99.90
14008;DHT22;61651;45.508;12.232;2023-03-03T11:05:24;16.00;99.90
14008;DHT22;61651;45.508;12.232;2023-03-03T11:08:35;16.30;99.90
14008;DHT22;61651;45.508;12.232;2023-03-03T11:11:48;16.50;99.90
14008;DHT22;61651;45.508;12.232;2023-03-03T11:15:12;16.70;99.90
14008;DHT22;61651;45.508;12.232;2023-03-03T11:18:36;16.90;99.90
14008;DHT22;61651;45.508;12.232;2023-03-03T11:21:46;17.10;99.90
14008;DHT22;61651;45.508;12.232;2023-03-03T11:25:00;17.30;99.90
14008;DHT22;61651;45.508;12.232;2023-03-03T11:28:25;17.50;99.90
14008;DHT22;61651;45.508;12.232;2023-03-03T11:31:37;17.70;99.90
14008;DHT22;61651;45.508;12.232;2023-03-03T11:34:50;17.80;99.90
14008;DHT22;61651;45.508;12.232;2023-03-03T11:38:01;17.90;99.90
14008;DHT22;61651;45.508;12.232;2023-03-03T11:41:13;17.90;99.90
14008;DHT22;61651;45.508;12.232;2023-03-03T11:44:21;17.80;99.90
14008;DHT22;61651;45.508;12.232;2023-03-03T11:47:30;18.00;99.90
14008;DHT22;61651;45.508;12.232;2023-03-03T11:50:40;18.00;99.90
14008;DHT22;61651;45.508;12.232;2023-03-03T11:53:53;18.10;99.90
14008;DHT22;61651;45.508;12.232;2023-03-03T11:57:10;18.20;99.90
14008;DHT22;61651;45.508;12.232;2023-03-03T12:00:22;18.30;99.90
14008;DHT22;61651;45.508;12.232;2023-03-03T12:03:29;18.50;99.90
14008;DHT22;61651;45.508;12.232;2023-03-03T12:06:44;18.60;99.90
14008;DHT22;61651;45.508;12.232;2023-03-03T12:10:07;18.70;99.90
14008;DHT22;61651;45.508;12.232;2023-03-03T12:13:16;18.80;99.90
14008;DHT22;61651;45.508;12.232;2023-03-03T12:16:27;19.00;99.90
14008;DHT22;61651;45.508;12.232;2023-03-03T12:19:40;19.20;99.90
14008;DHT22;61651;45.508;12.232;2023-03-03T12:22:56;19.30;99.90
14008;DHT22;61651;45.508;12.232;2023-03-03T12:26:06;19.30;99.90
14008;DHT22;61651;45.508;12.232;2023-03-03T12:29:23;19.40;99.90
14008;DHT22;61651;45.508;12.232;2023-03-03T12:32:37;19.60;99.90
14008;DHT22;61651;45.508;12.232;2023-03-03T12:35:50;19.80;99.90
14008;DHT22;61651;45.508;12.232;2023-03-03T12:39:04;19.90;99.90
14008;DHT22;61651;45.508;12.232;2023-03-03T12:42:20;20.00;99.90
14008;DHT22;61651;45.508;12.232;2023-03-03T12:45:35;20.10;99.90
14008;DHT22;61651;45.508;12.232;2023-03-03T12:48:40;20.20;99.90
14008;DHT22;61651;45.508;12.232;2023-03-03T12:51:56;20.10;99.90
14008;DHT22;61651;45.508;12.232;2023-03-03T12:55:09;20.10;99.90
14008;DHT22;61651;45.508;12.232;2023-03-03T12:58:18;20.10;99.90
14008;DHT22;61651;45.508;12.232;2023-03-03T13:01:38;20.10;99.90
14008;DHT22;61651;45.508;12.232;2023-03-03T13:04:47;20.10;99.90
14008;DHT22;61651;45.508;12.232;2023-03-03T13:08:29;20.30;99.90
14008;DHT22;61651;45.508;12.232;2023-03-03T13:11:52;20.30;99.90
14008;DHT22;61651;45.508;12.232;2023-03-03T13:15:03;20.20;99.90
14008;DHT22;61651;45.508;12.232;2023-03-03T13:18:18;20.30;99.90
14008;DHT22;61651;45.508;12.232;2023-03-03T13:21:30;20.40;99.90
14008;DHT22;61651;45.508;12.232;2023-03-03T13:24:41;20.60;99.50
14008;DHT22;61651;45.508;12.232;2023-03-03T13:27:49;20.80;99.90
14008;DHT22;61651;45.508;12.232;2023-03-03T13:30:57;20.80;99.00
14008;DHT22;61651;45.508;12.232;2023-03-03T13:34:01;20.70;99.50
14008;DHT22;61651;45.508;12.232;2023-03-03T13:37:10;20.50;99.30
14008;DHT22;61651;45.508;12.232;2023-03-03T13:40:16;20.30;99.70
14008;DHT22;61651;45.508;12.232;2023-03-03T13:43:23;20.20;99.70
14008;DHT22;61651;45.508;12.232;2023-03-03T13:46:35;20.00;99.90
14008;DHT22;61651;45.508;12.232;2023-03-03T13:50:01;20.00;99.90
14008;DHT22;61651;45.508;12.232;2023-03-03T13:53:29;20.20;99.90
14008;DHT22;61651;45.508;12.232;2023-03-03T13:56:44;20.40;99.90
14008;DHT22;61651;45.508;12.232;2023-03-03T13:59:54;20.50;99.90
14008;DHT22;61651;45.508;12.232;2023-03-03T14:03:18;20.40;99.40
14008;DHT22;61651;45.508;12.232;2023-03-03T14:06:25;20.40;99.30
14008;DHT22;61651;45.508;12.232;2023-03-03T14:10:00;20.40;98.90
14008;DHT22;61651;45.508;12.232;2023-03-03T14:13:08;20.20;99.10
14008;DHT22;61651;45.508;12.232;2023-03-03T14:16:16;20.20;99.80
14008;DHT22;61651;45.508;12.232;2023-03-03T14:19:23;20.50;99.60
14008;DHT22;61651;45.508;12.232;2023-03-03T14:22:33;20.90;99.10
14008;DHT22;61651;45.508;12.232;2023-03-03T14:25:52;21.30;98.60
14008;DHT22;61651;45.508;12.232;2023-03-03T14:29:15;21.50;97.00
14008;DHT22;61651;45.508;12.232;2023-03-03T14:32:20;21.30;97.60
14008;DHT22;61651;45.508;12.232;2023-03-03T14:35:32;21.00;97.30
14008;DHT22;61651;45.508;12.232;2023-03-03T14:38:47;20.70;97.70
14008;DHT22;61651;45.508;12.232;2023-03-03T14:41:51;20.50;97.80
14008;DHT22;61651;45.508;12.232;2023-03-03T14:45:00;20.20;98.10
14008;DHT22;61651;45.508;12.232;2023-03-03T14:48:15;20.00;98.50
14008;DHT22;61651;45.508;12.232;2023-03-03T14:51:24;19.80;98.50
14008;DHT22;61651;45.508;12.232;2023-03-03T14:54:29;19.60;98.90
14008;DHT22;61651;45.508;12.232;2023-03-03T14:57:39;19.50;99.00
14008;DHT22;61651;45.508;12.232;2023-03-03T15:00:47;19.40;99.30
14008;DHT22;61651;45.508;12.232;2023-03-03T15:03:58;19.30;99.30
14008;DHT22;61651;45.508;12.232;2023-03-03T15:07:18;19.30;99.30
14008;DHT22;61651;45.508;12.232;2023-03-03T15:10:31;19.10;98.30
14008;DHT22;61651;45.508;12.232;2023-03-03T15:13:35;19.00;99.10
14008;DHT22;61651;45.508;12.232;2023-03-03T15:16:39;19.10;98.80
14008;DHT22;61651;45.508;12.232;2023-03-03T15:23:14;19.20;98.70
14008;DHT22;61651;45.508;12.232;2023-03-03T15:26:23;19.40;98.80
14008;DHT22;61651;45.508;12.232;2023-03-03T15:29:35;19.60;98.70
14008;DHT22;61651;45.508;12.232;2023-03-03T15:32:44;19.70;98.20
14008;DHT22;61651;45.508;12.232;2023-03-03T15:35:51;19.70;98.30
14008;DHT22;61651;45.508;12.232;2023-03-03T15:39:00;19.90;98.00
14008;DHT22;61651;45.508;12.232;2023-03-03T15:42:06;20.10;97.60
14008;DHT22;61651;45.508;12.232;2023-03-03T15:45:18;20.20;97.70
14008;DHT22;61651;45.508;12.232;2023-03-03T15:48:39;20.40;97.70
14008;DHT22;61651;45.508;12.232;2023-03-03T15:52:02;20.50;97.50
14008;DHT22;61651;45.508;12.232;2023-03-03T15:55:21;20.60;96.80
14008;DHT22;61651;45.508;12.232;2023-03-03T16:02:03;20.50;96.50
14008;DHT22;61651;45.508;12.232;2023-03-03T16:05:15;20.40;96.80
14008;DHT22;61651;45.508;12.232;2023-03-03T16:08:25;20.20;96.80
14008;DHT22;61651;45.508;12.232;2023-03-03T16:11:35;19.90;97.00
14008;DHT22;61651;45.508;12.232;2023-03-03T16:14:50;19.60;97.30
14008;DHT22;61651;45.508;12.232;2023-03-03T16:17:59;19.40;97.80
14008;DHT22;61651;45.508;12.232;2023-03-03T16:21:17;19.20;98.50
14008;DHT22;61651;45.508;12.232;2023-03-03T16:24:30;18.90;99.10
14008;DHT22;61651;45.508;12.232;2023-03-03T16:27:42;18.70;99.60
14008;DHT22;61651;45.508;12.232;2023-03-03T16:30:51;18.50;99.90
14008;DHT22;61651;45.508;12.232;2023-03-03T16:34:01;18.30;99.90
14008;DHT22;61651;45.508;12.232;2023-03-03T16:37:13;18.10;99.90
14008;DHT22;61651;45.508;12.232;2023-03-03T16:40:20;17.90;99.90
14008;DHT22;61651;45.508;12.232;2023-03-03T16:43:30;17.70;99.90
14008;DHT22;61651;45.508;12.232;2023-03-03T16:46:37;17.60;99.90
14008;DHT22;61651;45.508;12.232;2023-03-03T16:49:47;17.50;99.90
14008;DHT22;61651;45.508;12.232;2023-03-03T16:53:00;17.30;99.90
14008;DHT22;61651;45.508;12.232;2023-03-03T16:56:11;17.20;99.90
14008;DHT22;61651;45.508;12.232;2023-03-03T16:59:35;17.10;99.90
14008;DHT22;61651;45.508;12.232;2023-03-03T17:03:18;16.90;99.90
14008;DHT22;61651;45.508;12.232;2023-03-03T17:06:30;16.70;99.90
14008;DHT22;61651;45.508;12.232;2023-03-03T17:09:46;16.60;99.90
14008;DHT22;61651;45.508;12.232;2023-03-03T17:13:10;16.40;99.90
14008;DHT22;61651;45.508;12.232;2023-03-03T17:16:21;16.30;99.90
14008;DHT22;61651;45.508;12.232;2023-03-03T17:19:40;16.20;99.90
14008;DHT22;61651;45.508;12.232;2023-03-03T17:22:53;16.00;99.90
14008;DHT22;61651;45.508;12.232;2023-03-03T17:26:07;15.90;99.90
14008;DHT22;61651;45.508;12.232;2023-03-03T17:29:21;15.80;99.90
14008;DHT22;61651;45.508;12.232;2023-03-03T17:32:58;15.70;99.90
14008;DHT22;61651;45.508;12.232;2023-03-03T17:36:21;15.60;99.90
14008;DHT22;61651;45.508;12.232;2023-03-03T17:39:51;15.50;99.90
14008;DHT22;61651;45.508;12.232;2023-03-03T17:43:02;15.30;99.90
14008;DHT22;61651;45.508;12.232;2023-03-03T17:46:13;15.30;99.90
14008;DHT22;61651;45.508;12.232;2023-03-03T17:53:12;15.10;99.90
14008;DHT22;61651;45.508;12.232;2023-03-03T17:56:23;15.00;99.90
14008;DHT22;61651;45.508;12.232;2023-03-03T17:59:48;14.90;99.90
14008;DHT22;61651;45.508;12.232;2023-03-03T18:03:25;14.70;99.90
14008;DHT22;61651;45.508;12.232;2023-03-03T18:10:37;14.50;99.90
14008;DHT22;61651;45.508;12.232;2023-03-03T18:13:58;14.50;99.90
14008;DHT22;61651;45.508;12.232;2023-03-03T18:17:18;14.50;99.90
14008;DHT22;61651;45.508;12.232;2023-03-03T18:20:32;14.50;99.90
14008;DHT22;61651;45.508;12.232;2023-03-03T18:23:37;14.40;99.90
14008;DHT22;61651;45.508;12.232;2023-03-03T18:26:42;14.30;99.90
14008;DHT22;61651;45.508;12.232;2023-03-03T18:30:20;14.20;99.90
14008;DHT22;61651;45.508;12.232;2023-03-03T18:34:00;14.10;99.90
14008;DHT22;61651;45.508;12.232;2023-03-03T18:37:08;14.00;99.90
14008;DHT22;61651;45.508;12.232;2023-03-03T18:40:32;14.00;99.90
14008;DHT22;61651;45.508;12.232;2023-03-03T18:43:50;14.00;99.90
14008;DHT22;61651;45.508;12.232;2023-03-03T18:46:54;14.00;99.90
14008;DHT22;61651;45.508;12.232;2023-03-03T18:50:12;14.00;99.90
14008;DHT22;61651;45.508;12.232;2023-03-03T18:53:26;13.90;99.90
14008;DHT22;61651;45.508;12.232;2023-03-03T18:56:43;13.90;99.90
14008;DHT22;61651;45.508;12.232;2023-03-03T18:59:55;13.90;99.90
14008;DHT22;61651;45.508;12.232;2023-03-03T19:02:58;13.80;99.90
14008;DHT22;61651;45.508;12.232;2023-03-03T19:06:04;13.80;99.90
14008;DHT22;61651;45.508;12.232;2023-03-03T19:09:10;13.70;99.90
14008;DHT22;61651;45.508;12.232;2023-03-03T19:12:15;13.70;99.90
14008;DHT22;61651;45.508;12.232;2023-03-03T19:15:54;13.60;99.90
14008;DHT22;61651;45.508;12.232;2023-03-03T19:18:59;13.50;99.90
14008;DHT22;61651;45.508;12.232;2023-03-03T19:22:21;13.50;99.90
14008;DHT22;61651;45.508;12.232;2023-03-03T19:25:26;13.40;99.90
14008;DHT22;61651;45.508;12.232;2023-03-03T19:28:35;13.40;99.90
14008;DHT22;61651;45.508;12.232;2023-03-03T19:31:43;13.30;99.90
14008;DHT22;61651;45.508;12.232;2023-03-03T19:34:53;13.30;99.90
14008;DHT22;61651;45.508;12.232;2023-03-03T19:38:08;13.30;99.90
14008;DHT22;61651;45.508;12.232;2023-03-03T19:41:21;13.30;99.90
14008;DHT22;61651;45.508;12.232;2023-03-03T19:44:37;13.10;99.90
14008;DHT22;61651;45.508;12.232;2023-03-03T19:47:43;13.00;99.90
14008;DHT22;61651;45.508;12.232;2023-03-03T19:50:53;13.10;99.90
14008;DHT22;61651;45.508;12.232;2023-03-03T19:54:11;13.00;99.90
14008;DHT22;61651;45.508;12.232;2023-03-03T19:57:22;13.00;99.90
14008;DHT22;61651;45.508;12.232;2023-03-03T20:00:37;13.00;99.90
14008;DHT22;61651;45.508;12.232;2023-03-03T20:03:57;13.00;99.90